Ingleside, TX (78362)

6:13 AM CST on December 03, 2016 (GMT -0600)
Bluebonnet Meadows | | Change Station

Elev 12 ft 27.89 °N, 97.20 °W | Updated 2 seconds ago

Overcast
Overcast
59.9 °F
Feels Like 59.9 °F
N
0.0
Wind Variable Wind from North
Gusts 0.0 mph

Today
High -- | Low -- °F
--% Chance of Precip.
Yesterday
High -- | Low -- °F
Precip. -- in
Pressure 29.84 in
Visibility 10.0 miles
Clouds Overcast 600 ft
Dew Point 60 °F
Humidity 100%
Rainfall 0.00 in
Snow Depth Not available.
7:04 AM 5:33 PM
Waxing Crescent, 14% visible
METAR KTFP 031155Z AUTO 03010G14KT 10SM OVC006 17/16 A2984 RMK AO2 T01700157
Pressure 29.84 in
Visibility 10.0 miles
Clouds Overcast 600 ft
Dew Point 60 °F
Humidity 100%
Rainfall 0.00 in
Snow Depth Not available.
7:04 AM 5:33 PM
Waxing Crescent, 14% visible
METAR KTFP 031155Z AUTO 03010G14KT 10SM OVC006 17/16 A2984 RMK AO2 T01700157

10-Day Weather Forecast

Almanac

Astronomy

Dec. 03, 2016 Rise Set
Actual Time
Civil Twilight
Nautical Twilight
Astronomical Twilight
Moon
Length of Visible Light
Length of Day
Tomorrow will be .
, % of the Moon is Illuminated

Today's Extremes

State Highs State Lows

Community

WunderPhotos

Upload Photos

1,955,441 photos uploaded!

WunderBlog® & News

Nearby

Air Quality

  Air Quality AQ Index Pollutant
Not available.

Snow Depth

Station Depth Elevation

Earthquake Activity

City Distance Mag. Time & Date
Minimum magnitude displayed is 2.5.

Coastal Water Temperatures

Place Temperature

Stations

Nearby Weather Stations

Station Location Temp. Windchill Dew Point Humidity Wind Precip. Elev Updated Type
                   

Watches & Warnings

There are currently no watches in effect.